Terminal Aerodrome Forecast
Issued by NWS

Home | Current Version | Previous Version | Text Only | Print | Product List | Glossary On
Versions: 1 2 3 4 5 6 7 8 9 10 11 12 13 14 15 16
000
FTUS43 KIND 071120
TAFBMG
TAF
KBMG 071120Z 0712/0812 28004KT P6SM BKN200
     FM080600 30007KT P6SM BKN080
     FM081100 29008KT P6SM SCT110
      AMD LTD TO CLD VIS AND WIND TIL 071400=

USA.gov is the U.S. government's official web portal to all federal, state and local government web resources and services.